createdAt,value
2018-07-15T00:00:23.684Z,0
2018-07-15T00:01:25.961Z,0
2018-07-15T00:02:27.959Z,0
2018-07-15T00:03:29.956Z,0
2018-07-15T00:04:32.233Z,0
2018-07-15T00:05:34.801Z,0
2018-07-15T00:06:37.088Z,0
2018-07-15T00:07:39.099Z,0
2018-07-15T00:08:41.091Z,0
2018-07-15T00:09:43.085Z,0
2018-07-15T00:10:45.082Z,0
2018-07-15T00:11:47.071Z,0
2018-07-15T00:12:49.064Z,0
2018-07-15T00:13:51.054Z,0
2018-07-15T00:14:53.058Z,0
2018-07-15T00:15:55.082Z,0
2018-07-15T00:16:57.047Z,0
2018-07-15T00:17:59.041Z,0
2018-07-15T00:19:01.042Z,0
2018-07-15T00:20:03.043Z,0
2018-07-15T00:21:05.033Z,0
2018-07-15T00:22:07.023Z,0
2018-07-15T00:23:09.017Z,0
2018-07-15T00:24:11.287Z,0
2018-07-15T00:25:13.284Z,0
2018-07-15T00:26:15.282Z,0
2018-07-15T00:27:17.670Z,0
2018-07-15T00:28:19.655Z,0
2018-07-15T00:29:21.666Z,0
2018-07-15T00:30:23.936Z,0
2018-07-15T00:31:25.923Z,0
2018-07-15T00:32:27.924Z,0
2018-07-15T00:33:29.922Z,0
2018-07-15T00:34:31.919Z,0
2018-07-15T00:35:33.917Z,0
2018-07-15T00:36:35.899Z,0
2018-07-15T00:37:37.900Z,0
2018-07-15T00:38:39.898Z,0
2018-07-15T00:39:41.903Z,0
2018-07-15T00:40:44.270Z,0
2018-07-15T00:41:46.262Z,0
2018-07-15T00:42:48.548Z,0
2018-07-15T00:43:50.535Z,0
2018-07-15T00:44:52.531Z,0
2018-07-15T00:45:54.811Z,0
2018-07-15T00:46:56.805Z,0
2018-07-15T00:47:58.804Z,0
2018-07-15T00:49:00.788Z,0
2018-07-15T00:50:02.795Z,0
2018-07-15T00:51:04.793Z,0
2018-07-15T00:52:06.787Z,0
2018-07-15T00:53:08.786Z,0
2018-07-15T00:54:11.058Z,0
2018-07-15T00:55:13.064Z,0
2018-07-15T00:56:16.069Z,0
2018-07-15T00:57:18.062Z,0
2018-07-15T00:58:20.343Z,0
2018-07-15T00:59:22.329Z,0
2018-07-15T01:00:24.322Z,0
2018-07-15T01:01:26.316Z,0
2018-07-15T01:02:28.323Z,0
2018-07-15T01:03:30.608Z,0
2018-07-15T01:04:32.880Z,0
2018-07-15T01:05:34.875Z,0
2018-07-15T01:06:36.878Z,0
2018-07-15T01:07:39.153Z,0
2018-07-15T01:08:41.150Z,0
2018-07-15T01:09:43.441Z,0
2018-07-15T01:10:45.439Z,0
2018-07-15T01:11:47.419Z,0
2018-07-15T01:12:49.416Z,0
2018-07-15T01:13:51.408Z,0
2018-07-15T01:14:53.406Z,0
2018-07-15T01:15:55.392Z,0
2018-07-15T01:16:57.696Z,0
2018-07-15T01:17:59.971Z,0
2018-07-15T01:19:01.969Z,0
2018-07-15T01:20:04.535Z,0
2018-07-15T01:21:06.525Z,0
2018-07-15T01:22:08.810Z,0
2018-07-15T01:23:10.799Z,0
2018-07-15T01:24:12.796Z,0
2018-07-15T01:25:14.783Z,0
2018-07-15T01:26:17.063Z,0
2018-07-15T01:27:19.064Z,0
2018-07-15T01:28:21.055Z,0
2018-07-15T01:29:23.045Z,0
2018-07-15T01:30:25.352Z,0
2018-07-15T01:31:27.339Z,0
2018-07-15T01:32:29.337Z,0
2018-07-15T01:33:31.606Z,0
2018-07-15T01:34:33.608Z,0
2018-07-15T01:35:35.595Z,0
2018-07-15T01:36:37.583Z,0
2018-07-15T01:37:39.582Z,0
2018-07-15T01:38:41.854Z,0
2018-07-15T01:39:43.846Z,0
2018-07-15T01:40:45.852Z,0
2018-07-15T01:41:47.837Z,0
2018-07-15T01:42:49.831Z,0
2018-07-15T01:43:51.815Z,0
2018-07-15T01:44:54.114Z,0
2018-07-15T01:45:56.106Z,0
2018-07-15T01:46:58.485Z,0
2018-07-15T01:48:00.761Z,0
2018-07-15T01:49:03.314Z,0
2018-07-15T01:50:05.307Z,0
2018-07-15T01:51:07.301Z,0
2018-07-15T01:52:09.680Z,0
2018-07-15T01:53:11.667Z,0
2018-07-15T01:54:13.675Z,0
2018-07-15T01:55:15.669Z,0
2018-07-15T01:56:17.652Z,0
2018-07-15T01:57:19.651Z,0
2018-07-15T01:58:21.653Z,0
2018-07-15T01:59:24.030Z,0
2018-07-15T02:00:26.585Z,0
2018-07-15T02:01:28.569Z,0
2018-07-15T02:02:30.574Z,0
2018-07-15T02:03:32.556Z,0
2018-07-15T02:04:34.831Z,0
2018-07-15T02:05:36.824Z,0
2018-07-15T02:06:38.822Z,0
2018-07-15T02:07:41.196Z,0
2018-07-15T02:08:43.191Z,0
2018-07-15T02:09:45.183Z,0
2018-07-15T02:10:47.189Z,0
2018-07-15T02:11:49.177Z,0
2018-07-15T02:12:51.175Z,0
2018-07-15T02:13:53.168Z,0
2018-07-15T02:14:55.448Z,0
2018-07-15T02:15:57.439Z,4
2018-07-15T02:16:59.438Z,4
2018-07-15T02:18:01.817Z,4
2018-07-15T02:19:04.191Z,0
2018-07-15T02:20:06.179Z,0
2018-07-15T02:21:08.451Z,4
2018-07-15T02:22:10.448Z,4
2018-07-15T02:23:12.447Z,4
2018-07-15T02:24:14.435Z,8
2018-07-15T02:25:16.443Z,4
2018-07-15T02:26:18.432Z,8
2018-07-15T02:27:20.419Z,4
2018-07-15T02:28:22.698Z,8
2018-07-15T02:29:24.690Z,8
2018-07-15T02:30:26.683Z,12
2018-07-15T02:31:28.679Z,12
2018-07-15T02:32:30.671Z,12
2018-07-15T02:33:32.660Z,12
2018-07-15T02:34:34.678Z,16
2018-07-15T02:35:36.951Z,16
2018-07-15T02:36:39.676Z,20
2018-07-15T02:37:41.921Z,24
2018-07-15T02:38:44.213Z,28
2018-07-15T02:39:46.198Z,28
2018-07-15T02:40:48.186Z,32
2018-07-15T02:41:50.189Z,40
2018-07-15T02:42:52.467Z,44
2018-07-15T02:43:54.744Z,48
2018-07-15T02:44:57.018Z,56
2018-07-15T02:45:59.020Z,64
2018-07-15T02:47:01.315Z,68
2018-07-15T02:48:03.984Z,80
2018-07-15T02:49:06.544Z,88
2018-07-15T02:50:08.818Z,92
2018-07-15T02:51:11.091Z,108
2018-07-15T02:52:13.363Z,116
2018-07-15T02:53:15.408Z,128
2018-07-15T02:54:17.654Z,144
2018-07-15T02:55:19.647Z,156
2018-07-15T02:56:21.643Z,172
2018-07-15T02:57:24.220Z,188
2018-07-15T02:58:26.210Z,204
2018-07-15T02:59:28.497Z,224
2018-07-15T03:00:30.795Z,240
2018-07-15T03:01:32.784Z,260
2018-07-15T03:02:35.072Z,284
2018-07-15T03:03:37.350Z,308
2018-07-15T03:04:39.349Z,328
2018-07-15T03:05:41.628Z,352
2018-07-15T03:06:44.008Z,376
2018-07-15T03:07:46.281Z,400
2018-07-15T03:08:48.932Z,428
2018-07-15T03:09:51.214Z,456
2018-07-15T03:10:53.502Z,484
2018-07-15T03:11:56.181Z,512
2018-07-15T03:12:58.556Z,548
2018-07-15T03:14:00.555Z,580
2018-07-15T03:15:02.549Z,608
2018-07-15T03:16:04.549Z,640
2018-07-15T03:17:06.844Z,676
2018-07-15T03:18:09.213Z,716
2018-07-15T03:19:11.585Z,748
2018-07-15T03:20:13.582Z,784
2018-07-15T03:21:15.568Z,816
2018-07-15T03:22:17.568Z,852
2018-07-15T03:23:19.862Z,888
2018-07-15T03:24:21.861Z,920
2018-07-15T03:25:24.140Z,956
2018-07-15T03:26:26.140Z,992
2018-07-15T03:27:28.405Z,1028
2018-07-15T03:28:30.678Z,1064
2018-07-15T03:29:32.673Z,1100
2018-07-15T03:30:35.342Z,1140
2018-07-15T03:31:38.190Z,1176
2018-07-15T03:32:40.746Z,1216
2018-07-15T03:33:42.731Z,1256
2018-07-15T03:34:44.736Z,1296
2018-07-15T03:35:46.723Z,1336
2018-07-15T03:36:48.713Z,1380
2018-07-15T03:37:50.994Z,1424
2018-07-15T03:38:52.988Z,1468
2018-07-15T03:39:55.077Z,1504
2018-07-15T03:40:57.860Z,1544
2018-07-15T03:41:59.852Z,1584
2018-07-15T03:43:02.124Z,1620
2018-07-15T03:44:04.111Z,1660
2018-07-15T03:45:06.108Z,1696
2018-07-15T03:46:08.374Z,1732
2018-07-15T03:47:10.373Z,1768
2018-07-15T03:48:12.734Z,1808
2018-07-15T03:49:14.734Z,1848
2018-07-15T03:50:16.734Z,1884
2018-07-15T03:51:19.003Z,1920
2018-07-15T03:52:20.999Z,1956
2018-07-15T03:53:22.991Z,1992
2018-07-15T03:54:24.987Z,2024
2018-07-15T03:55:27.272Z,2060
2018-07-15T03:56:29.255Z,2092
2018-07-15T03:57:31.258Z,2124
2018-07-15T03:58:33.806Z,2160
2018-07-15T03:59:35.803Z,2196
2018-07-15T04:00:38.228Z,2228
2018-07-15T04:01:40.175Z,2264
2018-07-15T04:02:42.175Z,2296
2018-07-15T04:03:44.166Z,2324
2018-07-15T04:04:46.146Z,2352
2018-07-15T04:05:48.432Z,2380
2018-07-15T04:06:50.415Z,2404
2018-07-15T04:07:52.692Z,2432
2018-07-15T04:08:54.713Z,2460
2018-07-15T04:09:57.063Z,2492
2018-07-15T04:10:59.055Z,2520
2018-07-15T04:12:01.327Z,2552
2018-07-15T04:13:03.319Z,2584
2018-07-15T04:14:05.593Z,2612
2018-07-15T04:15:08.131Z,2644
2018-07-15T04:16:10.436Z,2676
2018-07-15T04:17:12.426Z,2704
2018-07-15T04:18:14.697Z,2732
2018-07-15T04:19:16.696Z,2760
2018-07-15T04:20:18.690Z,2792
2018-07-15T04:21:20.685Z,2816
2018-07-15T04:22:22.964Z,2840
2018-07-15T04:23:24.937Z,2864
2018-07-15T04:24:27.226Z,2884
2018-07-15T04:25:29.211Z,2912
2018-07-15T04:26:31.204Z,2944
2018-07-15T04:27:33.198Z,2980
2018-07-15T04:28:35.468Z,3008
2018-07-15T04:29:37.453Z,3036
2018-07-15T04:30:39.463Z,3064
2018-07-15T04:31:41.845Z,3096
2018-07-15T04:32:44.120Z,3128
2018-07-15T04:33:46.118Z,3156
2018-07-15T04:34:48.109Z,3184
2018-07-15T04:35:50.096Z,3208
2018-07-15T04:36:52.089Z,3232
2018-07-15T04:37:54.095Z,3256
2018-07-15T04:38:56.084Z,3280
2018-07-15T04:39:58.352Z,3316
2018-07-15T04:41:00.343Z,3336
2018-07-15T04:42:02.341Z,3368
2018-07-15T04:43:04.328Z,3436
2018-07-15T04:44:06.318Z,3516
2018-07-15T04:45:08.314Z,3600
2018-07-15T04:46:10.590Z,3668
2018-07-15T04:47:12.574Z,3708
2018-07-15T04:48:14.568Z,3744
2018-07-15T04:49:16.575Z,3752
2018-07-15T04:50:18.565Z,3736
2018-07-15T04:51:20.558Z,3720
2018-07-15T04:52:22.558Z,3716
2018-07-15T04:53:24.838Z,3724
2018-07-15T04:54:26.830Z,3724
2018-07-15T04:55:28.819Z,3732
2018-07-15T04:56:30.829Z,3764
2018-07-15T04:57:33.208Z,3788
2018-07-15T04:58:35.197Z,3816
2018-07-15T04:59:37.191Z,3876
2018-07-15T05:00:39.491Z,3960
2018-07-15T05:01:41.862Z,4140
2018-07-15T05:02:43.851Z,4284
2018-07-15T05:03:45.859Z,4408
2018-07-15T05:04:47.841Z,4496
2018-07-15T05:05:50.110Z,4512
2018-07-15T05:06:52.104Z,4488
2018-07-15T05:07:54.097Z,4492
2018-07-15T05:08:56.094Z,4412
2018-07-15T05:09:58.091Z,4428
2018-07-15T05:11:00.069Z,4456
2018-07-15T05:12:02.656Z,4552
2018-07-15T05:13:04.639Z,4616
2018-07-15T05:14:06.637Z,4624
2018-07-15T05:15:08.630Z,4612
2018-07-15T05:16:10.625Z,4552
2018-07-15T05:17:12.621Z,4480
2018-07-15T05:18:14.998Z,4448
2018-07-15T05:19:16.986Z,4472
2018-07-15T05:20:19.279Z,4500
2018-07-15T05:21:21.541Z,4512
2018-07-15T05:22:23.552Z,4508
2018-07-15T05:23:25.545Z,4504
2018-07-15T05:24:27.533Z,4508
2018-07-15T05:25:29.535Z,4496
2018-07-15T05:26:31.524Z,4480
2018-07-15T05:27:33.519Z,4472
2018-07-15T05:28:35.519Z,4464
2018-07-15T05:29:37.504Z,4460
2018-07-15T05:30:39.515Z,4468
2018-07-15T05:31:41.499Z,4476
2018-07-15T05:32:43.495Z,4496
2018-07-15T05:33:45.490Z,4520
2018-07-15T05:34:47.546Z,4548
2018-07-15T05:35:49.907Z,4572
2018-07-15T05:36:51.907Z,4596
2018-07-15T05:37:53.895Z,4624
2018-07-15T05:38:55.891Z,4648
2018-07-15T05:39:58.165Z,4668
2018-07-15T05:41:00.441Z,4684
2018-07-15T05:42:02.428Z,4712
2018-07-15T05:43:04.423Z,4740
2018-07-15T05:44:06.428Z,4780
2018-07-15T05:45:08.436Z,4820
2018-07-15T05:46:10.984Z,4856
2018-07-15T05:47:12.974Z,4876
2018-07-15T05:48:15.269Z,4892
2018-07-15T05:49:17.262Z,4912
2018-07-15T05:50:19.262Z,4944
2018-07-15T05:51:21.276Z,4980
2018-07-15T05:52:23.548Z,5024
2018-07-15T05:53:25.529Z,5092
2018-07-15T05:54:27.527Z,5140
2018-07-15T05:55:29.798Z,5192
2018-07-15T05:56:31.798Z,5224
2018-07-15T05:57:33.797Z,5264
2018-07-15T05:58:35.796Z,5080
2018-07-15T05:59:37.786Z,4848
2018-07-15T06:00:39.783Z,4788
2018-07-15T06:01:41.773Z,4752
2018-07-15T06:02:43.781Z,4788
2018-07-15T06:03:45.776Z,4936
2018-07-15T06:04:48.046Z,5248
2018-07-15T06:05:50.045Z,5276
2018-07-15T06:06:52.332Z,5688
2018-07-15T06:07:54.324Z,5804
2018-07-15T06:08:56.316Z,5780
2018-07-15T06:09:58.328Z,5668
2018-07-15T06:11:00.322Z,5540
2018-07-15T06:12:02.311Z,5404
2018-07-15T06:13:04.312Z,5356
2018-07-15T06:14:06.308Z,5352
2018-07-15T06:15:08.306Z,5360
2018-07-15T06:16:10.303Z,5360
2018-07-15T06:17:12.422Z,5348
2018-07-15T06:18:15.233Z,5344
2018-07-15T06:19:17.214Z,5352
2018-07-15T06:20:19.216Z,5364
2018-07-15T06:21:21.209Z,5384
2018-07-15T06:22:23.210Z,5392
2018-07-15T06:23:25.204Z,5416
2018-07-15T06:24:27.207Z,5428
2018-07-15T06:25:29.589Z,5448
2018-07-15T06:26:31.575Z,5452
2018-07-15T06:27:33.584Z,5480
2018-07-15T06:28:35.579Z,5500
2018-07-15T06:29:37.578Z,5512
2018-07-15T06:30:39.956Z,5536
2018-07-15T06:31:41.960Z,5552
2018-07-15T06:32:44.301Z,5564
2018-07-15T06:33:46.284Z,5580
2018-07-15T06:34:48.283Z,5636
2018-07-15T06:35:50.290Z,5824
2018-07-15T06:36:52.288Z,6128
2018-07-15T06:37:54.280Z,6260
2018-07-15T06:38:56.667Z,6228
2018-07-15T06:39:58.951Z,6148
2018-07-15T06:41:01.263Z,6024
2018-07-15T06:42:03.262Z,6196
2018-07-15T06:43:05.269Z,6284
2018-07-15T06:44:07.273Z,6472
2018-07-15T06:45:09.257Z,6484
2018-07-15T06:46:11.260Z,6452
2018-07-15T06:47:13.257Z,6728
2018-07-15T06:48:15.250Z,7364
2018-07-15T06:49:17.325Z,7448
2018-07-15T06:50:19.254Z,7576
2018-07-15T06:51:21.260Z,8080
2018-07-15T06:52:23.247Z,8440
2018-07-15T06:53:25.239Z,8632
2018-07-15T06:54:27.251Z,8992
2018-07-15T06:55:29.247Z,8932
2018-07-15T06:56:31.627Z,8628
2018-07-15T06:57:33.622Z,8232
2018-07-15T06:58:35.629Z,8364
2018-07-15T06:59:37.902Z,8856
2018-07-15T07:00:39.904Z,10508
2018-07-15T07:01:41.911Z,11348
2018-07-15T07:02:43.919Z,11224
2018-07-15T07:03:45.917Z,10824
2018-07-15T07:04:48.209Z,10984
2018-07-15T07:05:50.202Z,11404
2018-07-15T07:06:52.217Z,12076
2018-07-15T07:07:54.216Z,12756
2018-07-15T07:08:56.212Z,13804
2018-07-15T07:09:58.220Z,14784
2018-07-15T07:11:00.499Z,15628
2018-07-15T07:12:02.501Z,15064
2018-07-15T07:13:04.779Z,14276
2018-07-15T07:14:06.815Z,13716
2018-07-15T07:15:08.774Z,13624
2018-07-15T07:16:10.768Z,13824
2018-07-15T07:17:12.765Z,14148
2018-07-15T07:18:14.769Z,15280
2018-07-15T07:19:16.779Z,16944
2018-07-15T07:20:18.778Z,18144
2018-07-15T07:21:20.787Z,18048
2018-07-15T07:22:22.789Z,17140
2018-07-15T07:23:24.789Z,16028
2018-07-15T07:24:26.788Z,15176
2018-07-15T07:25:28.801Z,14972
2018-07-15T07:26:30.805Z,15524
2018-07-15T07:27:33.085Z,14908
2018-07-15T07:28:35.098Z,13888
2018-07-15T07:29:37.382Z,12908
2018-07-15T07:30:39.382Z,12960
2018-07-15T07:31:41.782Z,14208
2018-07-15T07:32:43.782Z,15084
2018-07-15T07:33:45.783Z,14864
2018-07-15T07:34:48.354Z,13584
2018-07-15T07:35:50.352Z,11908
2018-07-15T07:36:52.358Z,11956
2018-07-15T07:37:54.366Z,11100
2018-07-15T07:38:56.673Z,11584
2018-07-15T07:39:58.672Z,12600
2018-07-15T07:41:00.984Z,12040
2018-07-15T07:42:03.257Z,11780
2018-07-15T07:43:05.259Z,11772
2018-07-15T07:44:07.254Z,10612
2018-07-15T07:45:09.259Z,9992
2018-07-15T07:46:11.274Z,10112
2018-07-15T07:47:13.271Z,9804
2018-07-15T07:48:15.272Z,10000
2018-07-15T07:49:17.280Z,9984
2018-07-15T07:50:19.286Z,10336
2018-07-15T07:51:21.682Z,10780
2018-07-15T07:52:24.074Z,10696
2018-07-15T07:53:26.175Z,10300
2018-07-15T07:54:28.088Z,10628
2018-07-15T07:55:30.087Z,10952
2018-07-15T07:56:32.090Z,11564
2018-07-15T07:57:34.488Z,12552
2018-07-15T07:58:36.489Z,13020
2018-07-15T07:59:38.523Z,12788
2018-07-15T08:00:40.997Z,11448
2018-07-15T08:01:46.497Z,11808
2018-07-15T08:02:50.496Z,13984
2018-07-15T08:03:54.454Z,13080
2018-07-15T08:04:59.968Z,11892
2018-07-15T08:06:03.743Z,10808
2018-07-15T08:07:07.922Z,10160
2018-07-15T08:08:13.281Z,10028
2018-07-15T08:09:16.820Z,10376
2018-07-15T08:10:21.046Z,10432
2018-07-15T08:11:23.541Z,11356
2018-07-15T08:12:29.227Z,11228
2018-07-15T08:13:34.559Z,10396
2018-07-15T08:14:40.782Z,11108
2018-07-15T08:15:45.944Z,11068
2018-07-15T08:16:49.693Z,10952
2018-07-15T08:17:53.115Z,11492
2018-07-15T08:18:59.586Z,11716
2018-07-15T08:20:03.636Z,11784
2018-07-15T08:21:10.946Z,11904
2018-07-15T08:22:14.513Z,12348
2018-07-15T08:23:21.243Z,12156
2018-07-15T08:24:25.989Z,13572
2018-07-15T08:25:30.461Z,16632
2018-07-15T08:26:34.302Z,16564
2018-07-15T08:27:40.695Z,16328
2018-07-15T08:28:44.982Z,16160
2018-07-15T08:29:51.895Z,15648
2018-07-15T08:30:58.614Z,15024
2018-07-15T08:32:06.424Z,17496
2018-07-15T08:33:12.577Z,34592
2018-07-15T08:34:16.823Z,36640
2018-07-15T08:35:22.627Z,45728
2018-07-15T08:36:27.867Z,39968
2018-07-15T08:37:35.027Z,44096
2018-07-15T08:38:42.190Z,39744
2018-07-15T08:39:49.662Z,43648
2018-07-15T08:40:52.164Z,38464
2018-07-15T08:41:58.302Z,43680
2018-07-15T08:43:03.563Z,39424
2018-07-15T08:44:09.236Z,44928
2018-07-15T08:45:14.127Z,38400
2018-07-15T08:46:17.963Z,64864
2018-07-15T08:47:20.760Z,95968
2018-07-15T08:48:24.866Z,100448
2018-07-15T08:49:28.812Z,106048
2018-07-15T08:50:33.665Z,113184
2018-07-15T08:51:38.660Z,105120
2018-07-15T08:52:43.837Z,102464
2018-07-15T08:53:47.168Z,101248
2018-07-15T08:54:51.126Z,97792
2018-07-15T08:55:58.202Z,99616
2018-07-15T08:57:00.515Z,97088
2018-07-15T08:58:02.563Z,92512
2018-07-15T08:59:05.194Z,91936
2018-07-15T09:00:07.473Z,94432
2018-07-15T09:01:10.033Z,103680
2018-07-15T09:02:13.010Z,103232
2018-07-15T09:03:16.311Z,94272
2018-07-15T09:04:21.502Z,90848
2018-07-15T09:05:26.813Z,90848
2018-07-15T09:06:31.186Z,92032
2018-07-15T09:07:34.669Z,95360
2018-07-15T09:08:37.457Z,90400
2018-07-15T09:09:41.537Z,91424
2018-07-15T09:10:45.759Z,87744
2018-07-15T09:11:50.812Z,84448
2018-07-15T09:12:53.731Z,85184
2018-07-15T09:13:55.815Z,95360
2018-07-15T09:14:58.927Z,72288
2018-07-15T09:16:04.890Z,97888
2018-07-15T09:17:10.754Z,100512
2018-07-15T09:18:16.405Z,55744
2018-07-15T09:19:22.146Z,100672
2018-07-15T09:20:27.486Z,93376
2018-07-15T09:21:33.892Z,93056
2018-07-15T09:22:40.779Z,91872
2018-07-15T09:23:47.173Z,91200
2018-07-15T09:24:53.346Z,97536
2018-07-15T09:25:59.639Z,100768
2018-07-15T09:27:06.651Z,100928
2018-07-15T09:28:11.351Z,102560
2018-07-15T09:29:18.980Z,108096
2018-07-15T09:30:25.034Z,109056
2018-07-15T09:31:31.423Z,100704
2018-07-15T09:32:36.811Z,96512
2018-07-15T09:33:42.850Z,97696
2018-07-15T09:34:49.076Z,104704
2018-07-15T09:35:56.100Z,103392
2018-07-15T09:37:01.847Z,100512
2018-07-15T09:38:07.961Z,101504
2018-07-15T09:39:13.106Z,102656
2018-07-15T09:40:19.993Z,110080
2018-07-15T09:41:27.151Z,109984
2018-07-15T09:42:34.240Z,109888
2018-07-15T09:43:41.237Z,113664
2018-07-15T09:44:44.124Z,114848
2018-07-15T09:45:48.834Z,115616
2018-07-15T09:46:52.748Z,39072
2018-07-15T09:47:57.560Z,64000
2018-07-15T09:49:01.445Z,94752
2018-07-15T09:50:04.877Z,109888
2018-07-15T09:51:08.028Z,69728
2018-07-15T09:52:11.474Z,101120
2018-07-15T09:53:14.275Z,104320
2018-07-15T09:54:16.736Z,101920
2018-07-15T09:55:20.436Z,104192
2018-07-15T09:56:23.413Z,104896
2018-07-15T09:57:26.358Z,107136
2018-07-15T09:58:29.996Z,113472
2018-07-15T09:59:32.301Z,115744
2018-07-15T10:00:35.705Z,117312
2018-07-15T10:01:39.246Z,119168
2018-07-15T10:02:42.930Z,127648
2018-07-15T10:03:46.490Z,125504
2018-07-15T10:04:49.910Z,132128
2018-07-15T10:05:52.081Z,85568
2018-07-15T10:06:56.284Z,135456
2018-07-15T10:08:00.044Z,126336
2018-07-15T10:09:03.613Z,120512
2018-07-15T10:10:06.758Z,118752
2018-07-15T10:11:10.701Z,113568
2018-07-15T10:12:14.070Z,113856
2018-07-15T10:13:17.815Z,107136
2018-07-15T10:14:20.562Z,102336
2018-07-15T10:15:23.948Z,106944
2018-07-15T10:16:26.021Z,105920
2018-07-15T10:17:28.225Z,102336
2018-07-15T10:18:30.558Z,107136
2018-07-15T10:19:32.645Z,110560
2018-07-15T10:20:34.677Z,105504
2018-07-15T10:21:37.080Z,110912
2018-07-15T10:22:39.300Z,118816
2018-07-15T10:23:41.382Z,116864
2018-07-15T10:24:43.484Z,112544
2018-07-15T10:25:45.547Z,115264
2018-07-15T10:26:48.179Z,128064
2018-07-15T10:27:50.260Z,128320
2018-07-15T10:28:52.788Z,123296
2018-07-15T10:29:55.767Z,119360
2018-07-15T10:31:00.510Z,116960
2018-07-15T10:32:03.061Z,117056
2018-07-15T10:33:05.212Z,122784
2018-07-15T10:34:08.077Z,123904
2018-07-15T10:35:10.147Z,118784
2018-07-15T10:36:12.218Z,113664
2018-07-15T10:37:14.295Z,113472
2018-07-15T10:38:16.424Z,114720
2018-07-15T10:39:18.544Z,107776
2018-07-15T10:40:20.597Z,107392
2018-07-15T10:41:22.616Z,109472
2018-07-15T10:42:24.964Z,106624
2018-07-15T10:43:27.026Z,106080
2018-07-15T10:44:29.500Z,101280
2018-07-15T10:45:31.916Z,103296
2018-07-15T10:46:34.388Z,105152
2018-07-15T10:47:36.472Z,106848
2018-07-15T10:48:38.933Z,107648
2018-07-15T10:49:42.047Z,118400
2018-07-15T10:50:44.355Z,124480
2018-07-15T10:51:46.374Z,121536
2018-07-15T10:52:48.434Z,119360
2018-07-15T10:53:50.556Z,128320
2018-07-15T10:54:52.868Z,130336
2018-07-15T10:55:54.888Z,123456
2018-07-15T10:56:57.031Z,118048
2018-07-15T10:57:59.441Z,116992
2018-07-15T10:59:01.671Z,117504
2018-07-15T11:00:03.902Z,116672
2018-07-15T11:01:06.405Z,117120
2018-07-15T11:02:08.947Z,119264
2018-07-15T11:03:11.199Z,116928
2018-07-15T11:04:13.528Z,114240
2018-07-15T11:05:15.554Z,114336
2018-07-15T11:06:17.934Z,115264
2018-07-15T11:07:20.588Z,114784
2018-07-15T11:08:22.665Z,114880
2018-07-15T11:09:24.710Z,116512
2018-07-15T11:10:26.758Z,121024
2018-07-15T11:11:28.801Z,117440
2018-07-15T11:12:30.821Z,121984
2018-07-15T11:13:32.842Z,121088
2018-07-15T11:14:34.877Z,119936
2018-07-15T11:15:36.942Z,127584
2018-07-15T11:16:39.733Z,132192
2018-07-15T11:17:41.665Z,127680
2018-07-15T11:18:43.719Z,125760
2018-07-15T11:19:45.747Z,126816
2018-07-15T11:20:47.823Z,118272
2018-07-15T11:21:50.136Z,126912
2018-07-15T11:22:52.207Z,127808
2018-07-15T11:23:54.502Z,128928
2018-07-15T11:24:56.556Z,127040
2018-07-15T11:25:58.622Z,122368
2018-07-15T11:27:00.661Z,121312
2018-07-15T11:28:02.741Z,119712
2018-07-15T11:29:04.756Z,119840
2018-07-15T11:30:06.760Z,117696
2018-07-15T11:31:09.271Z,116992
2018-07-15T11:32:11.722Z,116256
2018-07-15T11:33:13.743Z,121728
2018-07-15T11:34:15.770Z,122848
2018-07-15T11:35:17.791Z,118880
2018-07-15T11:36:19.820Z,115392
2018-07-15T11:37:21.882Z,120736
2018-07-15T11:38:23.896Z,130528
2018-07-15T11:39:25.924Z,127264
2018-07-15T11:40:27.945Z,121760
2018-07-15T11:41:30.243Z,117888
2018-07-15T11:42:32.326Z,116064
2018-07-15T11:43:34.336Z,111136
2018-07-15T11:44:36.687Z,105504
2018-07-15T11:45:38.980Z,108256
2018-07-15T11:46:41.056Z,115712
2018-07-15T11:47:43.405Z,118144
2018-07-15T11:48:45.413Z,117696
2018-07-15T11:49:48.102Z,113568
2018-07-15T11:50:50.198Z,107648
2018-07-15T11:51:52.227Z,109376
2018-07-15T11:52:54.521Z,118080
2018-07-15T11:53:56.534Z,123808
2018-07-15T11:54:58.565Z,121600
2018-07-15T11:56:01.156Z,128864
2018-07-15T11:57:03.175Z,139840
2018-07-15T11:58:05.201Z,135104
2018-07-15T11:59:07.214Z,128544
2018-07-15T12:00:09.508Z,130624
2018-07-15T12:01:11.526Z,128192
2018-07-15T12:02:13.825Z,130464
2018-07-15T12:03:15.861Z,132704
2018-07-15T12:04:18.186Z,133504
2018-07-15T12:05:20.486Z,140576
2018-07-15T12:06:22.514Z,144160
2018-07-15T12:07:24.815Z,140480
2018-07-15T12:08:26.834Z,135808
2018-07-15T12:09:29.548Z,136224
2018-07-15T12:10:31.831Z,136352
2018-07-15T12:11:34.137Z,139808
2018-07-15T12:12:36.164Z,136896
2018-07-15T12:13:38.176Z,136096
2018-07-15T12:14:40.209Z,131168
2018-07-15T12:15:42.224Z,126848
2018-07-15T12:16:44.243Z,123296
2018-07-15T12:17:46.259Z,121472
2018-07-15T12:18:48.279Z,117312
2018-07-15T12:19:50.310Z,123808
2018-07-15T12:20:52.319Z,131840
2018-07-15T12:21:54.338Z,124960
2018-07-15T12:22:56.360Z,115040
2018-07-15T12:23:58.381Z,115584
2018-07-15T12:25:00.683Z,124448
2018-07-15T12:26:02.710Z,134016
2018-07-15T12:27:04.737Z,130560
2018-07-15T12:28:06.754Z,118816
2018-07-15T12:29:08.760Z,111136
2018-07-15T12:30:10.777Z,115712
2018-07-15T12:31:12.803Z,118624
2018-07-15T12:32:15.207Z,110624
2018-07-15T12:33:17.237Z,101696
2018-07-15T12:34:19.637Z,110464
2018-07-15T12:35:21.657Z,121344
2018-07-15T12:36:23.666Z,120224
2018-07-15T12:37:26.075Z,120672
2018-07-15T12:38:28.113Z,122592
2018-07-15T12:39:30.127Z,122496
2018-07-15T12:40:32.147Z,116096
2018-07-15T12:41:34.176Z,111520
2018-07-15T12:42:36.196Z,109408
2018-07-15T12:43:38.603Z,109056
2018-07-15T12:44:40.630Z,107264
2018-07-15T12:45:42.637Z,109472
2018-07-15T12:46:44.669Z,111136
2018-07-15T12:47:46.685Z,111680
2018-07-15T12:48:48.702Z,108032
2018-07-15T12:49:50.716Z,100576
2018-07-15T12:50:52.738Z,95296
2018-07-15T12:51:55.048Z,98080
2018-07-15T12:52:57.062Z,101216
2018-07-15T12:53:59.085Z,102944
2018-07-15T12:55:02.179Z,112032
2018-07-15T12:56:04.400Z,113152
2018-07-15T12:57:06.419Z,109632
2018-07-15T12:58:08.432Z,107712
2018-07-15T12:59:10.770Z,106016
2018-07-15T13:00:12.794Z,103168
2018-07-15T13:01:14.812Z,100576
2018-07-15T13:02:16.839Z,103488
2018-07-15T13:03:18.858Z,105920
2018-07-15T13:04:20.874Z,103936
2018-07-15T13:05:22.899Z,105760
2018-07-15T13:06:25.299Z,106656
2018-07-15T13:07:27.317Z,102496
2018-07-15T13:08:29.344Z,102080
2018-07-15T13:09:31.641Z,103392
2018-07-15T13:10:33.671Z,105536
2018-07-15T13:11:35.694Z,106848
2018-07-15T13:12:37.717Z,109312
2018-07-15T13:13:39.742Z,107296
2018-07-15T13:14:41.766Z,105344
2018-07-15T13:15:43.793Z,103936
2018-07-15T13:16:45.814Z,100608
2018-07-15T13:17:47.825Z,98592
2018-07-15T13:18:49.859Z,102688
2018-07-15T13:19:51.883Z,106848
2018-07-15T13:20:53.901Z,106112
2018-07-15T13:21:56.205Z,107264
2018-07-15T13:22:58.238Z,103712
2018-07-15T13:24:00.543Z,99648
2018-07-15T13:25:02.871Z,102144
2018-07-15T13:26:04.878Z,101504
2018-07-15T13:27:06.898Z,96640
2018-07-15T13:28:08.922Z,99328
2018-07-15T13:29:10.953Z,104960
2018-07-15T13:30:13.250Z,104064
2018-07-15T13:31:15.278Z,104672
2018-07-15T13:32:17.297Z,104096
2018-07-15T13:33:19.311Z,98144
2018-07-15T13:34:21.335Z,97120
2018-07-15T13:35:23.755Z,97504
2018-07-15T13:36:25.792Z,98944
2018-07-15T13:37:28.368Z,105920
2018-07-15T13:38:30.390Z,111328
2018-07-15T13:39:32.424Z,115264
2018-07-15T13:40:34.719Z,118560
2018-07-15T13:41:37.221Z,119584
2018-07-15T13:42:39.160Z,110752
2018-07-15T13:43:41.180Z,100288
2018-07-15T13:44:43.585Z,98976
2018-07-15T13:45:45.606Z,99424
2018-07-15T13:46:47.627Z,95424
2018-07-15T13:47:49.656Z,94048